Time;durP1;ratioP1;P1;durP2;ratioP2;P2;SDS_P1;SDS_P2;PMS_P1;PMS_P2;Temp;Humidity;BMP_temperature;BMP_pressure;BME280_temperature;BME280_humidity;BME280_pressure;Samples;Min_cycle;Max_cycle;Signal;HPM_P1;HPM_P2
2023/05/17 00:00:52;;;;;;;14.23;4.22;;;;;;;15.51;100.00;64589.06;5051815;28;20182;-58
2023/05/17 00:03:18;;;;;;;6.70;3.75;;;;;;;15.30;100.00;64566.50;5051612;28;20208;-58
2023/05/17 00:05:43;;;;;;;11.50;4.30;;;;;;;15.29;100.00;64567.38;5051724;28;20197;-57
2023/05/17 00:08:08;;;;;;;9.50;4.63;;;;;;;15.27;100.00;64565.19;5051828;28;20286;-58
2023/05/17 00:10:34;;;;;;;9.95;3.90;;;;;;;15.19;100.00;64551.31;5051588;28;20608;-58
2023/05/17 00:13:00;;;;;;;12.43;4.20;;;;;;;15.04;100.00;64538.47;5051572;28;20208;-59
2023/05/17 00:15:25;;;;;;;9.00;4.68;;;;;;;15.06;100.00;64540.66;5052034;28;20209;-59
2023/05/17 00:17:50;;;;;;;10.23;4.28;;;;;;;15.09;100.00;64543.38;5051667;28;20189;-59
2023/05/17 00:20:16;;;;;;;12.18;4.32;;;;;;;15.04;100.00;64541.00;5051697;28;20563;-59
2023/05/17 00:22:44;;;;;;;7.10;3.60;;;;;;;15.03;100.00;64536.78;5051613;28;20185;-59
2023/05/17 00:25:09;;;;;;;6.28;3.40;;;;;;;15.07;100.00;64546.81;5051283;28;20193;-58
2023/05/17 00:27:34;;;;;;;10.05;4.03;;;;;;;15.02;100.00;64538.78;5051497;28;20257;-59
2023/05/17 00:30:00;;;;;;;10.75;3.78;;;;;;;15.01;100.00;64537.13;5051949;28;20664;-58
2023/05/17 00:32:25;;;;;;;12.07;4.25;;;;;;;15.01;100.00;64534.59;5051325;28;20299;-59
2023/05/17 00:34:51;;;;;;;5.32;3.22;;;;;;;15.01;100.00;64535.16;5051600;28;20638;-58
2023/05/17 00:37:16;;;;;;;5.97;3.70;;;;;;;15.00;100.00;64536.59;5051509;28;20575;-60
2023/05/17 00:39:41;;;;;;;8.63;4.10;;;;;;;15.06;100.00;64543.19;5051498;28;20738;-58
2023/05/17 00:42:08;;;;;;;12.15;4.40;;;;;;;14.88;100.00;64520.88;5051310;28;20181;-60
2023/05/17 00:44:33;;;;;;;9.77;4.13;;;;;;;14.75;100.00;64509.09;5051341;28;20229;-58
2023/05/17 00:46:59;;;;;;;12.77;4.35;;;;;;;14.66;100.00;64498.66;5033462;28;20698;-59
2023/05/17 00:49:26;;;;;;;12.60;4.43;;;;;;;14.65;100.00;64497.56;5051127;28;20217;-59
2023/05/17 00:51:53;;;;;;;8.70;4.28;;;;;;;14.66;100.00;64496.13;5051217;28;20212;-59
2023/05/17 00:54:19;;;;;;;12.95;5.18;;;;;;;14.69;100.00;64502.50;5051167;28;20751;-59
2023/05/17 00:56:44;;;;;;;9.98;4.57;;;;;;;14.69;100.00;64499.97;5051168;28;20276;-59
2023/05/17 00:59:12;;;;;;;8.82;3.95;;;;;;;14.67;100.00;64497.78;5051229;28;20251;-59
2023/05/17 01:01:40;;;;;;;13.93;4.55;;;;;;;14.61;100.00;64493.72;5050252;28;20215;-59
2023/05/17 01:04:06;;;;;;;9.60;4.15;;;;;;;14.59;100.00;64491.53;5051019;28;20206;-59
2023/05/17 01:06:31;;;;;;;10.73;4.13;;;;;;;14.52;100.00;64483.84;5050913;28;20182;-63
2023/05/17 01:08:57;;;;;;;13.93;3.90;;;;;;;14.52;100.00;64483.28;5050773;28;20198;-60
2023/05/17 01:12:14;;;;;;;5.82;3.28;;;;;;;14.40;100.00;64470.66;5050884;28;20269;-59
2023/05/17 01:14:51;;;;;;;11.63;4.38;;;;;;;14.37;100.00;64466.78;5038297;28;20237;-59
2023/05/17 01:17:25;;;;;;;15.82;4.20;;;;;;;14.34;100.00;64461.53;5050720;28;20221;-60
2023/05/17 01:20:14;;;;;;;9.90;4.40;;;;;;;14.42;100.00;64475.38;5051112;28;20344;-60
2023/05/17 01:23:06;;;;;;;10.88;4.40;;;;;;;14.39;100.00;64469.00;5050818;28;20201;-59
2023/05/17 01:26:03;;;;;;;10.38;3.95;;;;;;;14.29;100.00;64461.66;5050586;28;20197;-56
2023/05/17 01:28:30;;;;;;;11.27;4.15;;;;;;;14.31;100.00;64463.28;5050560;28;20213;-57
2023/05/17 01:30:57;;;;;;;12.43;3.97;;;;;;;14.17;100.00;64445.91;5050653;28;20284;-57
2023/05/17 01:33:24;;;;;;;10.83;3.77;;;;;;;14.11;100.00;64438.75;5050475;28;20662;-57
2023/05/17 01:35:49;;;;;;;10.07;4.57;;;;;;;14.04;100.00;64431.06;5050649;28;20186;-57
2023/05/17 01:38:15;;;;;;;10.10;4.30;;;;;;;14.09;100.00;64437.13;5050354;28;20706;-56
2023/05/17 01:40:49;;;;;;;12.53;4.33;;;;;;;14.02;100.00;64429.44;5050415;28;20193;-60
2023/05/17 01:43:47;;;;;;;14.50;4.63;;;;;;;14.05;100.00;64432.72;5050408;28;20208;-56
2023/05/17 01:46:21;;;;;;;8.63;4.80;;;;;;;14.04;100.00;64431.06;5050322;28;20185;-61
2023/05/17 01:49:25;;;;;;;14.00;5.33;;;;;;;14.08;100.00;64435.47;5050697;28;20208;-57
2023/05/17 01:51:57;;;;;;;17.55;4.72;;;;;;;14.10;100.00;64437.66;5050236;28;20201;-59
2023/05/17 01:54:30;;;;;;;12.07;4.73;;;;;;;14.01;100.00;64427.78;5050148;28;20213;-62
2023/05/17 01:57:00;;;;;;;14.70;5.03;;;;;;;14.00;100.00;64424.69;5050020;28;20189;-58
2023/05/17 01:59:28;;;;;;;13.47;4.63;;;;;;;13.90;100.00;64418.22;5050318;28;20212;-58
2023/05/17 02:02:02;;;;;;;12.85;4.10;;;;;;;13.92;100.00;64415.34;5050017;28;20477;-59
2023/05/17 02:04:29;;;;;;;10.23;4.50;;;;;;;13.85;100.00;64407.69;5032253;28;20204;-59
2023/05/17 02:06:54;;;;;;;12.52;5.30;;;;;;;13.75;100.00;64399.22;5049794;28;20193;-59
2023/05/17 02:09:20;;;;;;;14.67;5.53;;;;;;;13.69;100.00;64393.19;5050119;28;20209;-56
2023/05/17 02:11:45;;;;;;;11.13;4.83;;;;;;;13.66;100.00;64389.34;5051077;28;20193;-59
2023/05/17 02:14:10;;;;;;;12.40;5.57;;;;;;;13.67;100.00;64388.47;5053506;28;20646;-58
2023/05/17 02:16:36;;;;;;;9.32;5.35;;;;;;;13.74;100.00;64401.22;5053637;28;20268;-56
2023/05/17 02:19:01;;;;;;;13.33;6.00;;;;;;;13.80;100.00;64404.72;5053411;28;20244;-57
2023/05/17 02:21:27;;;;;;;14.83;6.10;;;;;;;13.79;100.00;64401.09;5053367;28;20185;-56
2023/05/17 02:23:52;;;;;;;13.87;6.23;;;;;;;13.81;100.00;64408.34;5053599;28;20201;-57
2023/05/17 02:26:17;;;;;;;21.98;6.25;;;;;;;13.80;100.00;64404.72;5053254;28;20189;-57
2023/05/17 02:28:43;;;;;;;15.73;8.07;;;;;;;13.81;100.00;64403.28;5053394;28;20778;-58
2023/05/17 02:31:08;;;;;;;15.82;8.45;;;;;;;13.79;100.00;64403.63;5053270;28;20314;-57
2023/05/17 02:33:34;;;;;;;14.60;7.70;;;;;;;13.76;100.00;64400.88;5053280;28;20690;-57
2023/05/17 02:36:00;;;;;;;18.00;7.00;;;;;;;13.67;100.00;64391.00;5053144;28;20389;-55
2023/05/17 02:38:25;;;;;;;15.18;7.55;;;;;;;13.75;100.00;64399.22;5052882;28;20310;-56
2023/05/17 02:40:50;;;;;;;13.15;7.00;;;;;;;13.68;100.00;64391.53;5052971;28;20177;-55
2023/05/17 02:43:16;;;;;;;15.98;7.22;;;;;;;13.69;100.00;64390.66;5052889;28;20776;-56
2023/05/17 02:45:42;;;;;;;16.73;7.85;;;;;;;13.66;100.00;64386.81;5052894;28;20215;-56
2023/05/17 02:48:08;;;;;;;12.77;7.07;;;;;;;13.38;100.00;64362.25;5052748;28;20205;-56
2023/05/17 02:50:33;;;;;;;15.90;8.38;;;;;;;14.05;100.00;64432.19;5053034;28;20612;-58
2023/05/17 02:52:58;;;;;;;13.65;7.85;;;;;;;14.77;100.00;64511.31;5062035;22;20212;-59
2023/05/17 02:55:24;;;;;;;21.77;7.95;;;;;;;14.72;100.00;64505.81;5072494;28;20259;-59
2023/05/17 02:57:49;;;;;;;13.25;7.28;;;;;;;14.49;100.00;64480.53;5072893;28;20181;-59
2023/05/17 03:00:15;;;;;;;14.03;9.07;;;;;;;14.24;100.00;64451.06;5073036;28;20246;-57
2023/05/17 03:02:41;;;;;;;19.63;9.18;;;;;;;14.05;100.00;64434.72;5072873;28;20181;-59
2023/05/17 03:05:07;;;;;;;16.75;9.82;;;;;;;13.86;100.00;64414.38;5072901;28;20291;-57
2023/05/17 03:07:32;;;;;;;17.42;8.98;;;;;;;13.83;100.00;64408.00;5073116;28;20646;-63
2023/05/17 03:09:57;;;;;;;16.63;9.37;;;;;;;13.72;100.00;64399.00;5072792;28;20254;-62
2023/05/17 03:12:23;;;;;;;16.15;8.57;;;;;;;13.60;100.00;64382.75;5072714;28;20189;-61
2023/05/17 03:14:48;;;;;;;16.35;9.82;;;;;;;13.59;100.00;64384.19;5072648;28;20196;-62
2023/05/17 03:17:14;;;;;;;19.58;10.25;;;;;;;13.68;100.00;64389.00;5072670;28;20188;-62
2023/05/17 03:19:39;;;;;;;14.77;9.65;;;;;;;13.57;100.00;64377.50;5072690;28;20229;-62
2023/05/17 03:22:05;;;;;;;18.67;9.90;;;;;;;13.68;100.00;64389.00;5072568;28;20710;-62
2023/05/17 03:24:31;;;;;;;13.30;8.70;;;;;;;13.79;100.00;64401.66;5071560;28;20637;-61
2023/05/17 03:26:56;;;;;;;21.52;9.85;;;;;;;13.70;100.00;64391.19;5072537;28;20200;-62
2023/05/17 03:29:29;;;;;;;14.38;8.85;;;;;;;13.61;100.00;64381.34;5072765;28;20675;-62
2023/05/17 03:31:54;;;;;;;16.13;10.20;;;;;;;13.57;100.00;64377.50;5072366;28;20728;-62
2023/05/17 03:34:20;;;;;;;20.00;9.63;;;;;;;13.55;100.00;64374.75;5072495;28;20288;-63
2023/05/17 03:36:45;;;;;;;14.13;8.30;;;;;;;13.73;100.00;64399.56;5072423;28;20196;-63
2023/05/17 03:39:10;;;;;;;14.05;7.63;;;;;;;13.68;100.00;64391.53;5072478;28;20703;-61
2023/05/17 03:41:36;;;;;;;12.20;8.48;;;;;;;13.76;100.00;64400.31;5072221;28;20204;-62
2023/05/17 03:44:01;;;;;;;20.10;9.10;;;;;;;13.73;100.00;64395.06;5072307;28;20273;-62
2023/05/17 03:46:27;;;;;;;12.90;9.07;;;;;;;13.79;100.00;64403.63;5072369;28;20212;-59
2023/05/17 03:48:52;;;;;;;20.63;9.63;;;;;;;13.46;100.00;64367.94;5072174;28;20233;-60
2023/05/17 03:51:18;;;;;;;16.27;8.20;;;;;;;13.60;100.00;64380.22;5072505;28;20708;-60
2023/05/17 03:53:43;;;;;;;17.63;8.50;;;;;;;13.55;100.00;64377.81;5072535;28;20224;-62
2023/05/17 03:56:09;;;;;;;14.07;9.03;;;;;;;13.35;100.00;64356.41;5071845;28;20185;-61
2023/05/17 03:58:35;;;;;;;18.87;9.03;;;;;;;13.35;100.00;64353.34;5072138;28;20217;-62
2023/05/17 04:01:01;;;;;;;22.17;10.50;;;;;;;13.45;100.00;64366.84;5070709;28;20207;-62
2023/05/17 04:03:26;;;;;;;20.37;11.63;;;;;;;13.29;100.00;64349.28;5069814;28;20204;-62
2023/05/17 04:05:52;;;;;;;24.23;11.88;;;;;;;13.41;100.00;64363.00;5069636;28;20655;-62
2023/05/17 04:08:17;;;;;;;19.70;11.47;;;;;;;13.45;100.00;64366.84;5070354;28;20211;-62
2023/05/17 04:10:43;;;;;;;21.38;12.00;;;;;;;13.30;100.00;64350.94;5070239;28;20196;-60
2023/05/17 04:13:08;;;;;;;16.70;11.50;;;;;;;13.27;100.00;64345.09;5071222;28;20353;-60
2023/05/17 04:15:34;;;;;;;24.67;12.80;;;;;;;13.34;100.00;64352.78;5071992;28;20220;-60
2023/05/17 04:18:00;;;;;;;18.10;13.57;;;;;;;13.36;100.00;64354.97;5071835;28;20199;-60
2023/05/17 04:20:25;;;;;;;20.23;13.30;;;;;;;13.46;100.00;64368.50;5071792;28;20301;-60
2023/05/17 04:22:51;;;;;;;22.40;13.47;;;;;;;13.54;100.00;64376.72;5071856;28;20227;-62
2023/05/17 04:25:17;;;;;;;21.63;12.93;;;;;;;13.63;100.00;64388.59;5071784;28;20307;-63
2023/05/17 04:27:43;;;;;;;19.07;13.03;;;;;;;13.89;100.00;64417.69;5070420;28;20189;-62
2023/05/17 04:30:09;;;;;;;20.48;12.15;;;;;;;14.03;100.00;64430.53;5071623;28;20181;-63
2023/05/17 04:32:35;;;;;;;26.15;13.93;;;;;;;14.02;100.00;64428.88;5071285;28;20212;-63
2023/05/17 04:35:01;;;;;;;20.97;13.40;;;;;;;14.12;100.00;64437.88;5071470;28;20201;-62
2023/05/17 04:37:26;;;;;;;19.87;13.00;;;;;;;14.15;100.00;64440.63;5071665;28;20674;-60
2023/05/17 04:39:52;;;;;;;18.70;13.53;;;;;;;14.15;100.00;64440.63;5071566;28;20215;-60
2023/05/17 04:42:17;;;;;;;20.63;12.70;;;;;;;14.21;100.00;64450.31;5071581;28;20215;-59
2023/05/17 04:44:43;;;;;;;16.52;12.50;;;;;;;14.04;100.00;64429.09;5071295;28;20254;-59
2023/05/17 04:47:08;;;;;;;17.83;12.60;;;;;;;14.13;100.00;64441.53;5071234;28;20192;-60
2023/05/17 04:49:34;;;;;;;20.65;12.15;;;;;;;14.15;100.00;64443.16;5071100;28;20778;-61
2023/05/17 04:52:00;;;;;;;26.85;12.68;;;;;;;14.17;100.00;64443.38;5070923;28;20554;-62
2023/05/17 04:54:25;;;;;;;24.73;12.85;;;;;;;14.10;100.00;64440.19;5070991;28;20224;-61
2023/05/17 04:56:51;;;;;;;20.15;12.50;;;;;;;14.14;100.00;64440.06;5071178;28;20264;-61
2023/05/17 04:59:16;;;;;;;24.38;12.57;;;;;;;14.21;100.00;64450.31;5071461;28;20308;-62
2023/05/17 05:01:42;;;;;;;19.60;13.00;;;;;;;14.41;100.00;64469.22;5071250;28;20622;-62
2023/05/17 05:04:10;;;;;;;19.03;12.90;;;;;;;14.39;100.00;64469.00;5071543;28;20748;-62
2023/05/17 05:06:35;;;;;;;22.55;13.32;;;;;;;14.40;100.00;64468.13;5071078;28;20172;-61
2023/05/17 05:09:01;;;;;;;22.10;12.23;;;;;;;14.52;100.00;64481.31;5071125;28;20679;-61
2023/05/17 05:11:26;;;;;;;24.17;13.48;;;;;;;14.54;100.00;64485.47;5070847;28;20285;-61
2023/05/17 05:13:52;;;;;;;20.38;13.27;;;;;;;14.55;100.00;64484.03;5069681;28;20250;-61
2023/05/17 05:16:17;;;;;;;29.17;14.10;;;;;;;14.55;100.00;64487.13;5070803;28;20639;-63
2023/05/17 05:18:42;;;;;;;23.92;14.13;;;;;;;14.50;100.00;64479.09;5070711;28;20227;-63
2023/05/17 05:21:08;;;;;;;22.65;13.95;;;;;;;14.40;100.00;64470.09;5070800;28;20181;-63
2023/05/17 05:23:33;;;;;;;23.55;13.95;;;;;;;14.40;100.00;64467.56;5070978;28;20603;-62
2023/05/17 05:25:59;;;;;;;22.87;14.03;;;;;;;14.53;100.00;64481.84;5070709;28;20180;-62
2023/05/17 05:28:24;;;;;;;21.80;13.70;;;;;;;14.47;100.00;64477.78;5070594;28;20274;-59
2023/05/17 05:30:58;;;;;;;23.80;13.23;;;;;;;14.62;100.00;64491.75;5070812;28;20249;-63
2023/05/17 05:33:24;;;;;;;28.00;13.00;;;;;;;14.59;100.00;64491.53;5070855;28;20290;-62
2023/05/17 05:35:49;;;;;;;20.90;13.15;;;;;;;14.62;100.00;64492.28;5070568;28;20192;-62
2023/05/17 05:38:15;;;;;;;27.02;14.25;;;;;;;14.77;100.00;64511.31;5070556;28;20224;-62
2023/05/17 05:40:41;;;;;;;24.80;15.32;;;;;;;14.99;100.00;64532.41;5070460;28;20610;-61
2023/05/17 05:43:06;;;;;;;24.42;13.27;;;;;;;15.08;100.00;64545.41;5070334;28;20223;-62
2023/05/17 05:45:31;;;;;;;20.88;12.80;;;;;;;15.26;100.00;64562.09;5069177;28;20565;-60
2023/05/17 05:47:57;;;;;;;19.80;12.23;;;;;;;15.19;100.00;64556.91;5069974;28;20647;-61
2023/05/17 05:50:22;;;;;;;20.25;12.18;;;;;;;15.21;100.00;64558.59;5070368;28;20189;-60
2023/05/17 05:52:48;;;;;;;22.42;12.02;;;;;;;15.18;100.00;64555.84;5070309;28;20213;-61
2023/05/17 05:55:13;;;;;;;19.88;12.35;;;;;;;15.19;100.00;64556.91;5070182;28;20379;-61
2023/05/17 05:57:39;;;;;;;17.52;11.30;;;;;;;15.32;100.00;64570.66;5070077;28;20188;-60
2023/05/17 06:00:05;;;;;;;17.08;10.77;;;;;;;15.44;100.00;64581.34;5069962;28;20213;-60
2023/05/17 06:02:31;;;;;;;18.73;11.43;;;;;;;15.38;100.00;64577.81;5068692;28;20223;-61
2023/05/17 06:04:56;;;;;;;19.13;11.60;;;;;;;15.57;100.00;64596.22;5070058;28;20699;-61
2023/05/17 06:07:22;;;;;;;28.58;11.70;;;;;;;15.59;100.00;64600.41;5070154;28;20215;-60
2023/05/17 06:09:48;;;;;;;20.08;9.57;;;;;;;15.62;100.00;64601.16;5070042;28;20234;-59
2023/05/17 06:12:13;;;;;;;14.63;9.77;;;;;;;15.68;100.00;64607.75;5069964;28;20666;-59
2023/05/17 06:14:38;;;;;;;18.23;10.70;;;;;;;15.73;100.00;64616.34;5069848;28;20235;-59
2023/05/17 06:17:04;;;;;;;20.52;10.63;;;;;;;15.83;100.00;64627.34;5070047;28;20180;-61
2023/05/17 06:19:29;;;;;;;16.70;10.25;;;;;;;15.71;100.00;64611.06;5069851;28;20205;-57
2023/05/17 06:21:54;;;;;;;15.65;9.20;;;;;;;15.89;100.00;64633.41;5069940;28;20217;-60
2023/05/17 06:24:20;;;;;;;14.00;9.80;;;;;;;16.07;100.00;64650.66;5051860;28;20209;-58
2023/05/17 06:26:48;;;;;;;15.63;10.48;;;;;;;15.94;100.00;64636.91;5070070;28;20570;-58
2023/05/17 06:29:13;;;;;;;22.52;10.90;;;;;;;16.02;100.00;64647.69;5070179;28;20237;-57
2023/05/17 06:31:39;;;;;;;19.05;9.82;;;;;;;15.98;100.00;64640.75;5069593;28;20272;-60
2023/05/17 06:34:04;;;;;;;16.42;10.90;;;;;;;15.87;100.00;64628.66;5068256;28;20220;-61
2023/05/17 06:36:30;;;;;;;14.43;8.68;;;;;;;15.97;100.00;64642.22;5069782;28;20214;-62
2023/05/17 06:38:55;;;;;;;19.13;10.10;;;;;;;16.01;100.00;64643.50;5069884;28;20292;-62
2023/05/17 06:41:21;;;;;;;19.85;10.93;;;;;;;16.03;100.00;64646.25;5069956;28;20213;-61
2023/05/17 06:43:46;;;;;;;15.68;10.18;;;;;;;15.95;100.00;64638.03;5069672;28;20270;-62
2023/05/17 06:46:12;;;;;;;15.90;9.63;;;;;;;15.92;100.00;64634.72;5069440;28;20688;-62
2023/05/17 06:48:37;;;;;;;17.02;10.18;;;;;;;15.94;100.00;64636.91;5069384;28;20603;-62
2023/05/17 06:51:02;;;;;;;16.85;9.30;;;;;;;16.03;100.00;64648.81;5069699;28;20612;-61
2023/05/17 06:53:28;;;;;;;20.25;10.73;;;;;;;16.08;100.00;64651.75;5069715;28;20227;-62
2023/05/17 06:55:53;;;;;;;17.45;11.13;;;;;;;16.06;100.00;64652.09;5069525;28;20710;-61
2023/05/17 06:58:19;;;;;;;19.50;10.57;;;;;;;16.13;100.00;64659.25;5070004;28;20205;-58
2023/05/17 07:00:45;;;;;;;15.82;10.25;;;;;;;16.16;100.00;64663.09;5072709;28;20192;-59
2023/05/17 07:03:10;;;;;;;18.55;10.55;;;;;;;16.15;100.00;64661.47;5072540;28;20262;-59
2023/05/17 07:05:35;;;;;;;18.38;10.55;;;;;;;16.17;100.00;64659.13;5072673;28;20185;-59
2023/05/17 07:08:01;;;;;;;17.50;11.55;;;;;;;16.17;100.00;64661.66;5054825;28;20217;-58
2023/05/17 07:10:26;;;;;;;15.65;10.20;;;;;;;16.23;100.00;64667.72;5072752;28;20268;-57
2023/05/17 07:12:52;;;;;;;15.90;10.93;;;;;;;16.33;100.00;64681.28;5072647;28;20220;-59
2023/05/17 07:15:17;;;;;;;19.00;11.77;;;;;;;16.25;100.00;64670.47;5072797;28;20185;-58
2023/05/17 07:17:43;;;;;;;23.25;10.68;;;;;;;16.33;100.00;64681.81;5072444;28;20280;-58
2023/05/17 07:20:09;;;;;;;15.98;11.13;;;;;;;16.27;100.00;64672.69;5072546;28;20193;-57
2023/05/17 07:22:36;;;;;;;18.85;10.30;;;;;;;16.54;100.00;64704.94;5072573;28;20197;-57
2023/05/17 07:25:01;;;;;;;20.45;11.20;;;;;;;16.49;100.00;64696.91;5072376;28;20217;-58
2023/05/17 07:27:27;;;;;;;16.27;10.95;;;;;;;16.64;100.00;64715.44;5072535;28;20195;-58
2023/05/17 07:29:53;;;;;;;17.20;11.00;;;;;;;16.60;100.00;64709.00;5072340;28;20652;-58
2023/05/17 07:32:18;;;;;;;16.30;10.15;;;;;;;16.55;100.00;64706.06;5072313;28;20203;-58
2023/05/17 07:34:44;;;;;;;22.27;10.80;;;;;;;16.84;100.00;64731.81;5072327;28;20205;-56
2023/05/17 07:37:10;;;;;;;17.27;10.02;;;;;;;16.70;100.00;64720.03;5072463;28;20235;-57
2023/05/17 07:39:35;;;;;;;19.40;9.32;;;;;;;16.83;100.00;64735.81;5072241;28;20201;-58
2023/05/17 07:42:01;;;;;;;19.80;10.50;;;;;;;16.66;100.00;64715.09;5072280;28;20173;-60
2023/05/17 07:44:26;;;;;;;18.90;9.80;;;;;;;16.62;100.00;64713.75;5072260;28;20205;-58
2023/05/17 07:46:52;;;;;;;16.80;9.85;;;;;;;16.70;100.00;64725.13;5072294;28;20254;-57
2023/05/17 07:49:17;;;;;;;16.65;9.52;;;;;;;16.79;100.00;64732.50;5072271;28;20702;-62
2023/05/17 07:51:43;;;;;;;17.45;9.40;;;;;;;16.67;100.00;64716.19;5072083;28;20682;-62
2023/05/17 07:54:08;;;;;;;16.40;10.80;;;;;;;16.71;100.00;64723.69;5071703;28;20224;-61
2023/05/17 07:56:33;;;;;;;17.08;10.30;;;;;;;16.59;100.00;64707.38;5053860;28;20197;-61
2023/05/17 07:58:59;;;;;;;17.58;10.02;;;;;;;16.69;100.00;64718.94;5072093;28;20231;-62
2023/05/17 08:01:25;;;;;;;16.88;9.88;;;;;;;16.65;100.00;64712.00;5071775;28;20219;-59
2023/05/17 08:03:51;;;;;;;19.40;11.90;;;;;;;16.63;100.00;64712.34;5071969;28;20236;-61
2023/05/17 08:06:17;;;;;;;16.05;9.85;;;;;;;16.52;100.00;64700.22;5071669;28;20188;-59
2023/05/17 08:08:43;;;;;;;18.75;11.85;;;;;;;16.61;100.00;64710.13;5071610;28;20212;-60
2023/05/17 08:11:10;;;;;;;24.63;12.50;;;;;;;16.75;100.00;64725.53;5071321;28;20189;-61
2023/05/17 08:13:36;;;;;;;16.35;10.88;;;;;;;16.73;100.00;64725.88;5071614;28;20361;-61
2023/05/17 08:16:02;;;;;;;18.92;11.10;;;;;;;16.68;100.00;64717.28;5071576;28;20684;-59
2023/05/17 08:18:31;;;;;;;18.40;10.40;;;;;;;16.63;100.00;64709.22;5071337;28;20637;-61
2023/05/17 08:20:56;;;;;;;18.75;10.90;;;;;;;16.86;100.00;64737.13;5071370;28;20181;-60
2023/05/17 08:23:21;;;;;;;20.70;12.55;;;;;;;16.99;100.00;64753.44;5071618;28;20212;-62
2023/05/17 08:25:47;;;;;;;20.27;12.00;;;;;;;17.12;100.00;64767.75;5071611;28;20580;-62
2023/05/17 08:28:13;;;;;;;21.92;12.15;;;;;;;17.19;100.00;64776.00;5071505;28;20714;-61
2023/05/17 08:30:38;;;;;;;24.98;13.38;;;;;;;17.19;100.00;64772.91;5071387;28;20651;-61
2023/05/17 08:33:04;;;;;;;19.73;11.75;;;;;;;17.49;100.00;64806.53;5071514;28;20220;-61
2023/05/17 08:35:30;;;;;;;18.38;11.25;;;;;;;17.39;100.00;64797.50;5071483;28;20201;-59
2023/05/17 08:37:56;;;;;;;25.02;12.48;;;;;;;17.50;100.00;64804.53;5071599;28;20208;-60
2023/05/17 08:40:21;;;;;;;22.75;12.65;;;;;;;17.28;100.00;64785.38;5071574;28;20207;-61
2023/05/17 08:42:49;;;;;;;19.30;12.70;;;;;;;17.40;100.00;64796.03;5071239;28;20188;-63
2023/05/17 08:45:15;;;;;;;22.70;12.20;;;;;;;17.37;100.00;64790.19;5071422;28;20188;-61
2023/05/17 08:47:42;;;;;;;25.27;13.20;;;;;;;17.32;100.00;64789.78;5071060;28;20507;-62
2023/05/17 08:50:07;;;;;;;26.88;13.40;;;;;;;17.41;100.00;64799.69;5071221;28;20670;-61
2023/05/17 08:52:35;;;;;;;22.27;13.00;;;;;;;17.39;100.00;64798.03;5071136;28;20209;-61
2023/05/17 08:55:04;;;;;;;21.92;13.05;;;;;;;17.47;100.00;64801.22;5071158;28;20693;-61
2023/05/17 08:57:30;;;;;;;24.63;13.48;;;;;;;17.44;100.00;64800.44;5071239;28;20339;-62
2023/05/17 08:59:59;;;;;;;24.50;12.75;;;;;;;17.55;100.00;64810.59;5070986;28;20220;-62
2023/05/17 09:02:27;;;;;;;19.75;12.60;;;;;;;17.67;100.00;64825.81;5070718;28;20219;-61
2023/05/17 09:04:54;;;;;;;26.83;13.18;;;;;;;17.72;100.00;64833.88;5070942;28;20387;-62
2023/05/17 09:07:21;;;;;;;23.25;13.07;;;;;;;17.59;100.00;64817.00;5070737;28;20268;-62
2023/05/17 09:09:49;;;;;;;25.20;12.32;;;;;;;17.63;100.00;64821.41;5070925;28;20213;-61
2023/05/17 09:12:15;;;;;;;17.77;11.18;;;;;;;17.75;100.00;64834.09;5070990;28;20659;-61
2023/05/17 09:14:41;;;;;;;21.48;11.00;;;;;;;17.84;100.00;64844.00;5070766;28;20217;-63
2023/05/17 09:17:07;;;;;;;21.98;11.38;;;;;;;17.72;100.00;64831.31;5071167;28;20227;-58
2023/05/17 09:19:32;;;;;;;22.35;10.27;;;;;;;17.75;100.00;64832.09;5070609;28;20717;-59
2023/05/17 09:22:02;;;;;;;18.75;10.43;;;;;;;17.90;100.00;64848.63;5068753;28;20189;-58
2023/05/17 09:24:29;;;;;;;17.08;10.02;;;;;;;17.92;100.00;64855.38;5070840;28;20242;-59
2023/05/17 09:27:01;;;;;;;23.27;10.25;;;;;;;18.03;99.98;64864.94;5070672;28;20196;-58
2023/05/17 09:29:30;;;;;;;16.88;9.57;;;;;;;18.02;99.33;64861.84;5070335;28;20216;-58
2023/05/17 09:31:55;;;;;;;19.83;9.48;;;;;;;17.98;100.00;64860.00;5070550;28;20670;-58
2023/05/17 09:34:23;;;;;;;18.73;10.57;;;;;;;18.03;99.61;64862.97;5070695;28;20220;-59
2023/05/17 09:36:50;;;;;;;16.52;9.55;;;;;;;18.11;98.86;64871.78;5070468;28;20219;-58
2023/05/17 09:39:16;;;;;;;15.65;9.63;;;;;;;18.04;97.14;64866.59;5070225;28;20208;-59
2023/05/17 09:41:46;;;;;;;15.70;8.63;;;;;;;18.18;98.14;64882.03;5070389;28;20542;-57
2023/05/17 09:44:13;;;;;;;20.00;9.27;;;;;;;18.27;97.55;64889.41;5070488;28;20212;-58
2023/05/17 09:46:44;;;;;;;17.88;9.23;;;;;;;18.23;96.28;64887.56;5070448;28;20188;-57
2023/05/17 09:49:09;;;;;;;14.27;8.10;;;;;;;18.29;95.28;64891.63;5070204;28;20300;-59
2023/05/17 09:51:42;;;;;;;20.88;9.02;;;;;;;18.17;98.33;64880.38;5070071;28;20268;-57
2023/05/17 09:54:11;;;;;;;13.68;9.35;;;;;;;18.37;99.35;64903.00;5070369;28;20220;-57
2023/05/17 09:56:36;;;;;;;17.30;8.50;;;;;;;18.29;97.88;64893.63;5069161;28;20375;-57
2023/05/17 09:59:03;;;;;;;18.70;8.70;;;;;;;18.35;99.25;64900.78;5069961;28;20710;-58
2023/05/17 10:01:30;;;;;;;12.80;7.72;;;;;;;18.76;96.04;64942.94;5070146;28;20177;-56
2023/05/17 10:04:02;;;;;;;13.68;7.78;;;;;;;18.92;97.66;64962.59;5070115;28;20232;-58
2023/05/17 10:06:29;;;;;;;10.77;6.90;;;;;;;18.65;94.24;64932.78;5069799;28;20232;-57
2023/05/17 10:08:57;;;;;;;17.27;6.78;;;;;;;18.49;95.12;64915.16;5069955;28;20263;-57
2023/05/17 10:11:32;;;;;;;15.93;8.13;;;;;;;18.55;92.27;64921.75;5069742;28;20184;-57
2023/05/17 10:14:12;;;;;;;11.55;6.93;;;;;;;18.35;96.74;64902.78;5069662;28;20212;-57
2023/05/17 10:16:38;;;;;;;16.50;7.00;;;;;;;18.19;95.84;64885.69;5069442;28;20189;-56
2023/05/17 10:19:04;;;;;;;13.18;7.13;;;;;;;18.14;96.20;64877.09;5070039;28;20630;-60
2023/05/17 10:21:30;;;;;;;12.68;7.22;;;;;;;18.07;97.85;64869.38;5068821;28;20185;-58
2023/05/17 10:23:59;;;;;;;13.57;7.97;;;;;;;17.81;100.00;64843.25;5069904;28;20213;-58
2023/05/17 10:26:26;;;;;;;16.38;8.02;;;;;;;17.90;98.54;64851.16;5069733;28;20192;-59
2023/05/17 10:29:02;;;;;;;13.77;8.23;;;;;;;17.86;100.00;64846.19;5069934;28;20299;-58
2023/05/17 10:31:33;;;;;;;16.23;7.63;;;;;;;18.01;98.22;64860.19;5069865;28;20204;-59
2023/05/17 10:34:04;;;;;;;12.98;7.43;;;;;;;18.03;100.00;64864.94;5072485;28;20238;-58
2023/05/17 10:36:30;;;;;;;11.82;7.57;;;;;;;17.93;99.28;64854.47;5073358;28;20189;-57
2023/05/17 10:38:57;;;;;;;15.20;7.88;;;;;;;18.00;100.00;64864.75;5073819;28;20258;-59
2023/05/17 10:41:26;;;;;;;11.68;7.25;;;;;;;18.10;100.00;64873.22;5073250;28;20189;-60
2023/05/17 10:43:53;;;;;;;20.00;7.68;;;;;;;18.01;99.78;64863.31;5073619;28;20205;-60
2023/05/17 10:46:22;;;;;;;15.60;7.22;;;;;;;17.83;100.00;64842.91;5073455;28;20225;-60
2023/05/17 10:48:50;;;;;;;14.32;8.43;;;;;;;17.71;100.00;64829.69;5073278;28;20208;-60
2023/05/17 10:51:23;;;;;;;13.13;7.38;;;;;;;17.95;100.00;64856.69;5073214;28;20185;-57
2023/05/17 10:54:07;;;;;;;16.08;7.72;;;;;;;17.81;100.00;64840.69;5073052;28;20348;-55
2023/05/17 10:56:33;;;;;;;15.10;7.32;;;;;;;17.95;97.99;64859.25;5073002;28;20234;-60
2023/05/17 10:59:22;;;;;;;19.83;7.28;;;;;;;18.14;98.39;64877.09;5072840;28;20234;-56
2023/05/17 11:02:07;;;;;;;14.85;7.68;;;;;;;18.00;98.19;64864.75;5072640;28;20543;-58
2023/05/17 11:04:43;;;;;;;16.20;7.43;;;;;;;18.03;98.96;64865.50;5072825;28;20236;-56
2023/05/17 11:07:17;;;;;;;16.02;7.13;;;;;;;17.97;100.00;64858.91;5072755;28;20253;-57
2023/05/17 11:09:49;;;;;;;10.05;7.28;;;;;;;18.04;99.31;64866.59;5072940;28;20561;-59
2023/05/17 11:12:16;;;;;;;15.13;7.60;;;;;;;17.99;99.40;64855.44;5072780;28;20211;-58
2023/05/17 11:15:09;;;;;;;16.08;7.93;;;;;;;18.09;100.00;64871.56;5072381;28;20204;-59